Carbon, Iowa
Current Conditions -  °F | °C
As of 12:15 PM on Saturday 25 Oct 2014 (Local Time) from KRDK Reporting Station
Clear Clear  
Wind Chill: 70°   Ceiling: Unl
Heat Index: 70°   Visibility: 10mi
Dew Point: 41°   Wind: 8mph
Humidity: 35%   Direction: 70°ENE
Pressure: 30.1"   Gusts: NA
Location:  41.05°N, 94.82°W
Report Text: KRDK 251715Z AUTO 07007KT 10SM CLR 21/05 A3010 RMK AO2
Loading
Personal Weather Stations






























Interactive Weather Map
Tropical Storm Tracking
New forecast layout! Learn more

10-Day Weather Forecast

Advertisements
Track Severe Weather on mobile